Taos Pueblo, New Mexico
Current Conditions -  °F | °C
As of 1:55 PM on Tuesday 21 Oct 2014 (Local Time) from KSKX Reporting Station
Overcast Overcast  
Wind Chill: 57°   Ceiling: 8000
Heat Index: 57°   Visibility: 10mi
Dew Point: 39°   Wind: 5mph
Humidity: 51%   Direction: 250°WSW
Pressure: 30.19"   Gusts: NA
Location:  36.4227°N, 105.509°W
Report Text: KSKX 211955Z AUTO 25004KT 10SM FEW034 SCT040 OVC080 14/04 A3019 RMK AO1
Loading
Personal Weather Stations






























Interactive Weather Map
Tropical Storm Tracking
New forecast layout! Learn more

10-Day Weather Forecast

Advertisements
Track Severe Weather on mobile